Harbor, Oregon
Current Conditions -  °F | °C
As of 6:29 AM on Tuesday 21 Oct 2014 (Local Time) from KBOK Reporting Station
Light Rain Light Rain  
Wind Chill: 54°   Ceiling: 800
Heat Index: 54°   Visibility: 2.5mi
Dew Point: 52°   Wind: 9mph
Humidity: 94%   Direction: 130°SE
Pressure: 30.06"   Gusts: NA
Location:  42.224°N, 124.092°W
Report Text: KBOK 211329Z AUTO 13008KT 2 1/2SM -RA BR SCT001 BKN008 OVC018 12/11 A3006 RMK AO2 CIG 004V011 RAB00 P0005
Loading
Personal Weather Stations






























Interactive Weather Map
Tropical Storm Tracking
New forecast layout! Learn more

10-Day Weather Forecast

Advertisements
Track Severe Weather on mobile